Map

Track Data

SID SEASON NUMBER BASIN SUBBASIN NAME ISO_TIME NATURE LAT LON WMO_WIND WMO_PRES WMO_AGENCY TRACK_TYPE DIST2LAND LANDFALL IFLAG USA_AGENCY USA_ATCF_ID USA_LAT USA_LON USA_RECORD USA_STATUS USA_WIND USA_PRES USA_SSHS USA_R34_NE USA_R34_SE USA_R34_SW USA_R34_NW USA_R50_NE USA_R50_SE USA_R50_SW USA_R50_NW USA_R64_NE USA_R64_SE USA_R64_SW USA_R64_NW USA_POCI USA_ROCI USA_RMW USA_EYE TOKYO_LAT TOKYO_LON TOKYO_GRADE TOKYO_WIND TOKYO_PRES TOKYO_R50_DIR TOKYO_R50_LONG TOKYO_R50_SHORT TOKYO_R30_DIR TOKYO_R30_LONG TOKYO_R30_SHORT TOKYO_LAND CMA_LAT CMA_LON CMA_CAT CMA_WIND CMA_PRES HKO_LAT HKO_LON HKO_CAT HKO_WIND HKO_PRES NEWDELHI_LAT NEWDELHI_LON NEWDELHI_GRADE NEWDELHI_WIND NEWDELHI_PRES NEWDELHI_CI NEWDELHI_DP NEWDELHI_POCI REUNION_LAT REUNION_LON REUNION_TYPE REUNION_WIND REUNION_PRES REUNION_TNUM REUNION_CI REUNION_RMW REUNION_R34_NE REUNION_R34_SE REUNION_R34_SW REUNION_R34_NW REUNION_R50_NE REUNION_R50_SE REUNION_R50_SW REUNION_R50_NW REUNION_R64_NE REUNION_R64_SE REUNION_R64_SW REUNION_R64_NW BOM_LAT BOM_LON BOM_TYPE BOM_WIND BOM_PRES BOM_TNUM BOM_CI BOM_RMW BOM_R34_NE BOM_R34_SE BOM_R34_SW BOM_R34_NW BOM_R50_NE BOM_R50_SE BOM_R50_SW BOM_R50_NW BOM_R64_NE BOM_R64_SE BOM_R64_SW BOM_R64_NW BOM_ROCI BOM_POCI BOM_EYE BOM_POS_METHOD BOM_PRES_METHOD NADI_LAT NADI_LON NADI_CAT NADI_WIND NADI_PRES WELLINGTON_LAT WELLINGTON_LON WELLINGTON_WIND WELLINGTON_PRES DS824_LAT DS824_LON DS824_STAGE DS824_WIND DS824_PRES TD9636_LAT TD9636_LON TD9636_STAGE TD9636_WIND TD9636_PRES TD9635_LAT TD9635_LON TD9635_WIND TD9635_PRES TD9635_ROCI NEUMANN_LAT NEUMANN_LON NEUMANN_CLASS NEUMANN_WIND NEUMANN_PRES MLC_LAT MLC_LON MLC_CLASS MLC_WIND MLC_PRES USA_GUST BOM_GUST BOM_GUST_PER REUNION_GUST REUNION_GUST_PER USA_SEAHGT USA_SEARAD_NE USA_SEARAD_SE USA_SEARAD_SW USA_SEARAD_NW STORM_SPEED STORM_DIR
1887334N20321 1887 75 NA NA NOT_NAMED 1887-11-29 12:00:00 SS 20.0000 -39.0000 main 2206 2206 _____________O -1 20.0000 -39.0000 SS 35 19 350
1887334N20321 1887 75 NA NA NOT_NAMED 1887-11-29 15:00:00 SS 20.9126 -39.1619 main 2272 2272 _____________P -1 20.9126 -39.1619 SS 37 18 351
1887334N20321 1887 75 NA NA NOT_NAMED 1887-11-29 18:00:00 SS 21.8000 -39.3000 main 2299 2296 _____________O -1 21.8000 -39.3000 SS 40 18 353
1887334N20321 1887 75 NA NA NOT_NAMED 1887-11-29 21:00:00 SS 22.6500 -39.4004 main 2304 2303 _____________P -1 22.6500 -39.4004 SS 42 17 354
1887334N20321 1887 75 NA NA NOT_NAMED 1887-11-30 00:00:00 SS 23.5000 -39.5000 main 2313 2309 _____________O -1 23.5000 -39.5000 SS 45 18 353
1887334N20321 1887 75 NA NA NOT_NAMED 1887-11-30 03:00:00 SS 24.4000 -39.6498 main 2306 2299 _____________P -1 24.4000 -39.6498 SS 45 18 351
1887334N20321 1887 75 NA NA NOT_NAMED 1887-11-30 06:00:00 SS 25.3000 -39.8000 main 2300 2282 _____________O -1 25.3000 -39.8000 SS 45 18 354
1887334N20321 1887 75 NA NA NOT_NAMED 1887-11-30 09:00:00 SS 26.1796 -39.8489 main 2279 2277 _____________P -1 26.1796 -39.8489 SS 45 17 354
1887334N20321 1887 75 NA NA NOT_NAMED 1887-11-30 12:00:00 SS 27.0000 -40.0000 main 2283 2282 _____________O -1 27.0000 -40.0000 SS 45 16 341
1887334N20321 1887 75 NA NA NOT_NAMED 1887-11-30 15:00:00 SS 27.7228 -40.4397 main 2311 2287 _____________P -1 27.7228 -40.4397 SS 45 17 328
1887334N20321 1887 75 NA NA NOT_NAMED 1887-11-30 18:00:00 SS 28.4000 -41.0000 main 2287 2196 _____________O -1 28.4000 -41.0000 SS 45 17 326
1887334N20321 1887 75 NA NA NOT_NAMED 1887-11-30 21:00:00 SS 29.0998 -41.5007 main 2196 2104 _____________P -1 29.0998 -41.5007 SS 45 17 328
1887334N20321 1887 75 NA NA NOT_NAMED 1887-12-01 00:00:00 SS 29.8000 -42.0000 main 2104 2014 _____________O -1 29.8000 -42.0000 SS 45 17 328
1887334N20321 1887 75 NA NA NOT_NAMED 1887-12-01 03:00:00 SS 30.5073 -42.5006 main 2014 1923 _____________P -1 30.5073 -42.5006 SS 45 16 328
1887334N20321 1887 75 NA NA NOT_NAMED 1887-12-01 06:00:00 SS 31.2000 -43.0000 main 1923 1828 _____________O -1 31.2000 -43.0000 SS 45 17 326
1887334N20321 1887 75 NA NA NOT_NAMED 1887-12-01 09:00:00 SS 31.9403 -43.6482 main 1828 1752 _____________P -1 31.9403 -43.6482 SS 42 16 327
1887334N20321 1887 75 NA NA NOT_NAMED 1887-12-01 12:00:00 SS 32.5000 -44.0000 main 1752 1739 _____________O -1 32.5000 -44.0000 SS 40 7 0
1887334N20321 1887 75 NA NA NOT_NAMED 1887-12-01 15:00:00 SS 32.6827 -43.6584 main 1743 1743 _____________P -1 32.6827 -43.6584 SS 40 9 77
1887334N20321 1887 75 NA NA NOT_NAMED 1887-12-01 18:00:00 SS 32.7000 -43.0000 main 1771 1771 _____________O -1 32.7000 -43.0000 SS 40 10 83
1887334N20321 1887 75 NA NA NOT_NAMED 1887-12-01 21:00:00 SS 32.7999 -42.4574 main 1782 1782 _____________P -1 32.7999 -42.4574 SS 37 9 78
1887334N20321 1887 75 NA NA NOT_NAMED 1887-12-02 00:00:00 ET 32.9000 -41.9000 main 1799 1799 _____________O -1 32.9000 -41.9000 EX 35 10 78
1887334N20321 1887 75 NA NA NOT_NAMED 1887-12-02 03:00:00 ET 32.9999 -41.3424 main 1817 1817 _____________P -1 32.9999 -41.3424 EX 35 9 78
1887334N20321 1887 75 NA NA NOT_NAMED 1887-12-02 06:00:00 ET 33.1000 -40.8000 main 1831 1831 _____________O -1 33.1000 -40.8000 EX 35 9 75
1887334N20321 1887 75 NA NA NOT_NAMED 1887-12-02 09:00:00 ET 33.2215 -40.3377 main 1846 1841 _____________P -1 33.2215 -40.3377 EX 32 9 77
1887334N20321 1887 75 NA NA NOT_NAMED 1887-12-02 12:00:00 ET 33.3000 -39.8000 main 1862 1862 _____________O -1 33.3000 -39.8000 EX 30 11 88
1887334N20321 1887 75 NA NA NOT_NAMED 1887-12-02 15:00:00 ET 33.2652 -39.0443 main 1903 1903 _____________P -1 33.2652 -39.0443 EX 30 13 94
1887334N20321 1887 75 NA NA NOT_NAMED 1887-12-02 18:00:00 ET 33.2000 -38.2000 main 1955 1955 _____________O -1 33.2000 -38.2000 EX 30 14 93
1887334N20321 1887 75 NA NA NOT_NAMED 1887-12-02 21:00:00 ET 33.1995 -37.4004 main 1999 1963 _____________P -1 33.1995 -37.4004 EX 30 13 90
1887334N20321 1887 75 NA NA NOT_NAMED 1887-12-03 00:00:00 ET 33.2000 -36.6000 main 1963 1890 _____________O -1 33.2000 -36.6000 EX 30 13 92
1887334N20321 1887 75 NA NA NOT_NAMED 1887-12-03 03:00:00 ET 33.1571 -35.7924 main 1890 1815 _____________P -1 33.1571 -35.7924 EX 30 13 94
1887334N20321 1887 75 NA NA NOT_NAMED 1887-12-03 06:00:00 ET 33.1000 -35.0000 main 1815 1751 _____________O -1 33.1000 -35.0000 EX 30 13 95
1887334N20321 1887 75 NA NA NOT_NAMED 1887-12-03 09:00:00 ET 33.0483 -34.2400 main 1740 1676 _____________P -1 33.0483 -34.2400 EX 30 13 95
1887334N20321 1887 75 NA NA NOT_NAMED 1887-12-03 12:00:00 ET 33.0000 -33.5000 main 1676 _____________O -1 33.0000 -33.5000 EX 30 12 94

About IBTrACS Database

This database is a web-friendly format of International Best Track Archive for Climate Stewardship (IBTrACS), a global best track data archive curated by NOAA dating back to 1842.

Updated: 2021-12-08